sensor_id;sensor_type;location;lat;lon;timestamp;P1;durP1;ratioP1;P2;durP2;ratioP2
5961;SDS011;3007;50.770;0.250;2023-07-31T00:00:50;31.42;;;8.85;;
5961;SDS011;3007;50.770;0.250;2023-07-31T00:03:19;30.13;;;8.45;;
5961;SDS011;3007;50.770;0.250;2023-07-31T00:05:45;29.23;;;8.68;;
5961;SDS011;3007;50.770;0.250;2023-07-31T00:08:12;20.77;;;8.23;;
5961;SDS011;3007;50.770;0.250;2023-07-31T00:10:39;26.45;;;7.30;;
5961;SDS011;3007;50.770;0.250;2023-07-31T00:13:06;25.95;;;8.20;;
5961;SDS011;3007;50.770;0.250;2023-07-31T00:15:33;17.13;;;6.40;;
5961;SDS011;3007;50.770;0.250;2023-07-31T00:18:00;22.20;;;7.55;;
5961;SDS011;3007;50.770;0.250;2023-07-31T00:20:28;26.15;;;7.70;;
5961;SDS011;3007;50.770;0.250;2023-07-31T00:22:55;27.38;;;7.80;;
5961;SDS011;3007;50.770;0.250;2023-07-31T00:25:22;34.45;;;8.55;;
5961;SDS011;3007;50.770;0.250;2023-07-31T00:27:49;33.03;;;8.70;;
5961;SDS011;3007;50.770;0.250;2023-07-31T00:30:16;32.28;;;9.65;;
5961;SDS011;3007;50.770;0.250;2023-07-31T00:32:42;35.38;;;10.13;;
5961;SDS011;3007;50.770;0.250;2023-07-31T00:35:09;29.38;;;9.25;;
5961;SDS011;3007;50.770;0.250;2023-07-31T00:37:37;28.33;;;9.73;;
5961;SDS011;3007;50.770;0.250;2023-07-31T00:40:05;31.70;;;9.48;;
5961;SDS011;3007;50.770;0.250;2023-07-31T00:42:33;33.30;;;10.00;;
5961;SDS011;3007;50.770;0.250;2023-07-31T00:45:00;28.70;;;8.93;;
5961;SDS011;3007;50.770;0.250;2023-07-31T00:47:27;27.00;;;8.18;;
5961;SDS011;3007;50.770;0.250;2023-07-31T00:49:54;30.95;;;9.30;;
5961;SDS011;3007;50.770;0.250;2023-07-31T00:52:21;28.58;;;9.07;;
5961;SDS011;3007;50.770;0.250;2023-07-31T00:54:49;28.27;;;8.60;;
5961;SDS011;3007;50.770;0.250;2023-07-31T00:57:17;21.20;;;7.72;;
5961;SDS011;3007;50.770;0.250;2023-07-31T00:59:43;24.70;;;7.07;;
5961;SDS011;3007;50.770;0.250;2023-07-31T01:02:11;27.50;;;8.23;;
5961;SDS011;3007;50.770;0.250;2023-07-31T01:04:38;23.83;;;7.53;;
5961;SDS011;3007;50.770;0.250;2023-07-31T01:07:07;20.10;;;6.53;;
5961;SDS011;3007;50.770;0.250;2023-07-31T01:09:42;20.75;;;6.25;;
5961;SDS011;3007;50.770;0.250;2023-07-31T01:12:14;20.45;;;6.35;;
5961;SDS011;3007;50.770;0.250;2023-07-31T01:14:50;24.25;;;6.55;;
5961;SDS011;3007;50.770;0.250;2023-07-31T01:17:17;16.80;;;6.15;;
5961;SDS011;3007;50.770;0.250;2023-07-31T01:19:44;17.17;;;5.90;;
5961;SDS011;3007;50.770;0.250;2023-07-31T01:22:29;29.80;;;7.13;;
5961;SDS011;3007;50.770;0.250;2023-07-31T01:25:10;23.85;;;6.35;;
5961;SDS011;3007;50.770;0.250;2023-07-31T01:27:50;21.27;;;7.07;;
5961;SDS011;3007;50.770;0.250;2023-07-31T01:30:25;23.48;;;7.20;;
5961;SDS011;3007;50.770;0.250;2023-07-31T01:32:58;22.05;;;7.72;;
5961;SDS011;3007;50.770;0.250;2023-07-31T01:35:31;18.55;;;7.13;;
5961;SDS011;3007;50.770;0.250;2023-07-31T01:37:58;26.02;;;8.23;;
5961;SDS011;3007;50.770;0.250;2023-07-31T01:40:25;22.00;;;6.95;;
5961;SDS011;3007;50.770;0.250;2023-07-31T01:42:53;30.38;;;8.45;;
5961;SDS011;3007;50.770;0.250;2023-07-31T01:45:20;27.15;;;8.50;;
5961;SDS011;3007;50.770;0.250;2023-07-31T01:47:47;24.20;;;8.10;;
5961;SDS011;3007;50.770;0.250;2023-07-31T01:50:14;30.80;;;9.00;;
5961;SDS011;3007;50.770;0.250;2023-07-31T01:52:41;32.28;;;8.40;;
5961;SDS011;3007;50.770;0.250;2023-07-31T01:55:08;26.20;;;9.30;;
5961;SDS011;3007;50.770;0.250;2023-07-31T01:57:36;33.92;;;8.57;;
5961;SDS011;3007;50.770;0.250;2023-07-31T02:00:05;26.25;;;8.88;;
5961;SDS011;3007;50.770;0.250;2023-07-31T02:02:32;30.70;;;10.40;;
5961;SDS011;3007;50.770;0.250;2023-07-31T02:04:59;37.22;;;9.18;;
5961;SDS011;3007;50.770;0.250;2023-07-31T02:07:26;28.40;;;8.83;;
5961;SDS011;3007;50.770;0.250;2023-07-31T02:09:53;31.80;;;8.63;;
5961;SDS011;3007;50.770;0.250;2023-07-31T02:12:20;28.65;;;9.02;;
5961;SDS011;3007;50.770;0.250;2023-07-31T02:14:47;27.45;;;9.48;;
5961;SDS011;3007;50.770;0.250;2023-07-31T02:17:15;27.20;;;9.13;;
5961;SDS011;3007;50.770;0.250;2023-07-31T02:19:42;35.50;;;9.43;;
5961;SDS011;3007;50.770;0.250;2023-07-31T02:22:09;33.67;;;9.38;;
5961;SDS011;3007;50.770;0.250;2023-07-31T02:24:36;33.28;;;10.10;;
5961;SDS011;3007;50.770;0.250;2023-07-31T02:27:03;30.10;;;9.80;;
5961;SDS011;3007;50.770;0.250;2023-07-31T02:29:30;32.38;;;10.02;;
5961;SDS011;3007;50.770;0.250;2023-07-31T02:31:57;29.98;;;8.82;;
5961;SDS011;3007;50.770;0.250;2023-07-31T02:34:25;35.13;;;9.35;;
5961;SDS011;3007;50.770;0.250;2023-07-31T02:36:52;29.92;;;9.80;;
5961;SDS011;3007;50.770;0.250;2023-07-31T02:39:19;30.77;;;8.80;;
5961;SDS011;3007;50.770;0.250;2023-07-31T02:41:46;33.75;;;9.80;;
5961;SDS011;3007;50.770;0.250;2023-07-31T02:44:13;33.47;;;10.43;;
5961;SDS011;3007;50.770;0.250;2023-07-31T02:46:40;32.75;;;9.02;;
5961;SDS011;3007;50.770;0.250;2023-07-31T02:49:07;33.33;;;9.45;;
5961;SDS011;3007;50.770;0.250;2023-07-31T02:51:35;36.25;;;10.02;;
5961;SDS011;3007;50.770;0.250;2023-07-31T02:54:02;32.22;;;8.98;;
5961;SDS011;3007;50.770;0.250;2023-07-31T02:56:29;28.70;;;9.70;;
5961;SDS011;3007;50.770;0.250;2023-07-31T02:58:56;44.55;;;9.90;;
5961;SDS011;3007;50.770;0.250;2023-07-31T03:01:22;32.78;;;9.73;;
5961;SDS011;3007;50.770;0.250;2023-07-31T03:03:49;23.30;;;8.27;;
5961;SDS011;3007;50.770;0.250;2023-07-31T03:06:17;30.30;;;8.43;;
5961;SDS011;3007;50.770;0.250;2023-07-31T03:08:45;29.65;;;8.73;;
5961;SDS011;3007;50.770;0.250;2023-07-31T03:11:12;28.48;;;8.75;;
5961;SDS011;3007;50.770;0.250;2023-07-31T03:13:39;22.45;;;7.88;;
5961;SDS011;3007;50.770;0.250;2023-07-31T03:16:06;21.17;;;7.18;;
5961;SDS011;3007;50.770;0.250;2023-07-31T03:18:32;21.35;;;7.07;;
5961;SDS011;3007;50.770;0.250;2023-07-31T03:20:59;23.38;;;7.13;;
5961;SDS011;3007;50.770;0.250;2023-07-31T03:23:26;20.30;;;6.85;;
5961;SDS011;3007;50.770;0.250;2023-07-31T03:25:58;12.70;;;5.30;;
5961;SDS011;3007;50.770;0.250;2023-07-31T03:28:26;18.70;;;5.78;;
5961;SDS011;3007;50.770;0.250;2023-07-31T03:30:53;17.10;;;5.30;;
5961;SDS011;3007;50.770;0.250;2023-07-31T03:33:20;13.55;;;5.30;;
5961;SDS011;3007;50.770;0.250;2023-07-31T03:35:46;15.10;;;5.75;;
5961;SDS011;3007;50.770;0.250;2023-07-31T03:38:13;15.25;;;5.00;;
5961;SDS011;3007;50.770;0.250;2023-07-31T03:40:40;15.80;;;5.32;;
5961;SDS011;3007;50.770;0.250;2023-07-31T03:43:08;15.70;;;4.95;;
5961;SDS011;3007;50.770;0.250;2023-07-31T03:45:35;17.33;;;4.60;;
5961;SDS011;3007;50.770;0.250;2023-07-31T03:48:03;14.75;;;4.70;;
5961;SDS011;3007;50.770;0.250;2023-07-31T03:50:33;12.57;;;4.82;;
5961;SDS011;3007;50.770;0.250;2023-07-31T03:53:00;12.02;;;4.20;;
5961;SDS011;3007;50.770;0.250;2023-07-31T03:55:27;13.45;;;4.70;;
5961;SDS011;3007;50.770;0.250;2023-07-31T03:57:54;16.13;;;5.32;;
5961;SDS011;3007;50.770;0.250;2023-07-31T04:00:22;17.95;;;5.25;;
5961;SDS011;3007;50.770;0.250;2023-07-31T04:02:49;11.02;;;4.60;;
5961;SDS011;3007;50.770;0.250;2023-07-31T04:05:16;11.82;;;3.95;;
5961;SDS011;3007;50.770;0.250;2023-07-31T04:07:43;10.60;;;3.58;;
5961;SDS011;3007;50.770;0.250;2023-07-31T04:10:10;9.43;;;3.65;;
5961;SDS011;3007;50.770;0.250;2023-07-31T04:12:37;14.32;;;3.75;;
5961;SDS011;3007;50.770;0.250;2023-07-31T04:15:04;12.98;;;4.40;;
5961;SDS011;3007;50.770;0.250;2023-07-31T04:17:33;19.17;;;4.63;;
5961;SDS011;3007;50.770;0.250;2023-07-31T04:20:00;14.95;;;4.93;;
5961;SDS011;3007;50.770;0.250;2023-07-31T04:22:27;14.32;;;4.65;;
5961;SDS011;3007;50.770;0.250;2023-07-31T04:24:54;11.60;;;4.38;;
5961;SDS011;3007;50.770;0.250;2023-07-31T04:27:21;12.70;;;4.13;;
5961;SDS011;3007;50.770;0.250;2023-07-31T04:29:48;14.20;;;4.28;;
5961;SDS011;3007;50.770;0.250;2023-07-31T04:32:15;20.08;;;4.78;;
5961;SDS011;3007;50.770;0.250;2023-07-31T04:34:43;18.88;;;5.38;;
5961;SDS011;3007;50.770;0.250;2023-07-31T04:37:10;19.17;;;5.72;;
5961;SDS011;3007;50.770;0.250;2023-07-31T04:39:37;24.75;;;6.00;;
5961;SDS011;3007;50.770;0.250;2023-07-31T04:42:04;26.13;;;6.45;;
5961;SDS011;3007;50.770;0.250;2023-07-31T04:44:31;21.77;;;6.32;;
5961;SDS011;3007;50.770;0.250;2023-07-31T04:46:58;16.05;;;6.22;;
5961;SDS011;3007;50.770;0.250;2023-07-31T04:49:24;20.27;;;6.03;;
5961;SDS011;3007;50.770;0.250;2023-07-31T04:51:53;19.30;;;6.18;;
5961;SDS011;3007;50.770;0.250;2023-07-31T04:54:19;15.38;;;5.53;;
5961;SDS011;3007;50.770;0.250;2023-07-31T04:56:46;22.42;;;6.55;;
5961;SDS011;3007;50.770;0.250;2023-07-31T04:59:13;16.92;;;6.13;;
5961;SDS011;3007;50.770;0.250;2023-07-31T05:01:40;22.13;;;6.95;;
5961;SDS011;3007;50.770;0.250;2023-07-31T05:04:07;18.80;;;5.70;;
5961;SDS011;3007;50.770;0.250;2023-07-31T05:06:34;18.52;;;6.15;;
5961;SDS011;3007;50.770;0.250;2023-07-31T05:09:03;16.05;;;4.95;;
5961;SDS011;3007;50.770;0.250;2023-07-31T05:11:29;17.38;;;5.60;;
5961;SDS011;3007;50.770;0.250;2023-07-31T05:13:56;20.55;;;6.55;;
5961;SDS011;3007;50.770;0.250;2023-07-31T05:16:23;19.48;;;7.25;;
5961;SDS011;3007;50.770;0.250;2023-07-31T05:18:53;19.60;;;6.88;;
5961;SDS011;3007;50.770;0.250;2023-07-31T05:21:20;19.23;;;5.72;;
5961;SDS011;3007;50.770;0.250;2023-07-31T05:23:47;24.63;;;7.30;;
5961;SDS011;3007;50.770;0.250;2023-07-31T05:26:16;21.65;;;6.38;;
5961;SDS011;3007;50.770;0.250;2023-07-31T05:28:43;23.30;;;6.45;;
5961;SDS011;3007;50.770;0.250;2023-07-31T05:31:10;16.17;;;5.80;;
5961;SDS011;3007;50.770;0.250;2023-07-31T05:33:37;21.00;;;5.65;;
5961;SDS011;3007;50.770;0.250;2023-07-31T05:36:04;13.13;;;4.82;;
5961;SDS011;3007;50.770;0.250;2023-07-31T05:38:31;14.98;;;5.57;;
5961;SDS011;3007;50.770;0.250;2023-07-31T05:40:58;14.32;;;5.20;;
5961;SDS011;3007;50.770;0.250;2023-07-31T05:43:26;17.30;;;6.43;;
5961;SDS011;3007;50.770;0.250;2023-07-31T05:45:53;19.08;;;6.40;;
5961;SDS011;3007;50.770;0.250;2023-07-31T05:48:20;17.02;;;6.05;;
5961;SDS011;3007;50.770;0.250;2023-07-31T05:50:47;21.83;;;6.57;;
5961;SDS011;3007;50.770;0.250;2023-07-31T05:53:13;16.27;;;5.57;;
5961;SDS011;3007;50.770;0.250;2023-07-31T05:55:40;18.40;;;5.57;;
5961;SDS011;3007;50.770;0.250;2023-07-31T05:58:07;21.02;;;5.45;;
5961;SDS011;3007;50.770;0.250;2023-07-31T06:00:36;14.30;;;5.53;;
5961;SDS011;3007;50.770;0.250;2023-07-31T06:03:02;20.00;;;5.93;;
5961;SDS011;3007;50.770;0.250;2023-07-31T06:05:29;17.48;;;4.78;;
5961;SDS011;3007;50.770;0.250;2023-07-31T06:07:56;12.45;;;3.90;;
5961;SDS011;3007;50.770;0.250;2023-07-31T06:10:23;10.82;;;3.47;;
5961;SDS011;3007;50.770;0.250;2023-07-31T06:12:50;12.55;;;4.10;;
5961;SDS011;3007;50.770;0.250;2023-07-31T06:15:17;12.68;;;5.35;;
5961;SDS011;3007;50.770;0.250;2023-07-31T06:17:47;18.60;;;5.50;;
5961;SDS011;3007;50.770;0.250;2023-07-31T06:20:14;16.80;;;5.25;;
5961;SDS011;3007;50.770;0.250;2023-07-31T06:22:41;17.85;;;4.88;;
5961;SDS011;3007;50.770;0.250;2023-07-31T06:25:08;16.40;;;5.22;;
5961;SDS011;3007;50.770;0.250;2023-07-31T06:27:35;18.67;;;5.10;;
5961;SDS011;3007;50.770;0.250;2023-07-31T06:30:01;19.90;;;5.57;;
5961;SDS011;3007;50.770;0.250;2023-07-31T06:32:28;13.75;;;5.53;;
5961;SDS011;3007;50.770;0.250;2023-07-31T06:34:57;19.83;;;6.15;;
5961;SDS011;3007;50.770;0.250;2023-07-31T06:37:24;19.65;;;6.40;;
5961;SDS011;3007;50.770;0.250;2023-07-31T06:39:51;25.17;;;7.30;;
5961;SDS011;3007;50.770;0.250;2023-07-31T06:42:18;18.30;;;5.53;;
5961;SDS011;3007;50.770;0.250;2023-07-31T06:44:45;22.55;;;5.75;;
5961;SDS011;3007;50.770;0.250;2023-07-31T06:47:11;29.45;;;6.40;;
5961;SDS011;3007;50.770;0.250;2023-07-31T06:49:38;24.50;;;7.07;;
5961;SDS011;3007;50.770;0.250;2023-07-31T06:52:07;19.90;;;6.05;;
5961;SDS011;3007;50.770;0.250;2023-07-31T06:54:34;18.70;;;5.97;;
5961;SDS011;3007;50.770;0.250;2023-07-31T06:57:01;18.58;;;5.57;;
5961;SDS011;3007;50.770;0.250;2023-07-31T06:59:28;28.48;;;6.93;;
5961;SDS011;3007;50.770;0.250;2023-07-31T07:01:55;20.08;;;6.20;;
5961;SDS011;3007;50.770;0.250;2023-07-31T07:04:22;24.23;;;6.57;;
5961;SDS011;3007;50.770;0.250;2023-07-31T07:06:49;18.70;;;6.30;;
5961;SDS011;3007;50.770;0.250;2023-07-31T07:09:17;15.55;;;6.10;;
5961;SDS011;3007;50.770;0.250;2023-07-31T07:11:44;18.83;;;5.95;;
5961;SDS011;3007;50.770;0.250;2023-07-31T07:14:11;13.57;;;5.20;;
5961;SDS011;3007;50.770;0.250;2023-07-31T07:16:38;26.85;;;7.03;;
5961;SDS011;3007;50.770;0.250;2023-07-31T07:19:06;22.60;;;7.05;;
5961;SDS011;3007;50.770;0.250;2023-07-31T07:21:32;18.15;;;6.43;;
5961;SDS011;3007;50.770;0.250;2023-07-31T07:23:59;23.00;;;6.53;;
5961;SDS011;3007;50.770;0.250;2023-07-31T07:26:27;22.40;;;7.00;;
5961;SDS011;3007;50.770;0.250;2023-07-31T07:28:54;23.73;;;6.30;;
5961;SDS011;3007;50.770;0.250;2023-07-31T07:31:22;20.75;;;5.78;;
5961;SDS011;3007;50.770;0.250;2023-07-31T07:33:49;15.25;;;6.03;;
5961;SDS011;3007;50.770;0.250;2023-07-31T07:36:16;21.95;;;6.38;;
5961;SDS011;3007;50.770;0.250;2023-07-31T07:38:43;19.77;;;6.45;;
5961;SDS011;3007;50.770;0.250;2023-07-31T07:41:11;26.30;;;7.28;;
5961;SDS011;3007;50.770;0.250;2023-07-31T07:43:39;21.23;;;6.78;;
5961;SDS011;3007;50.770;0.250;2023-07-31T07:46:06;19.30;;;6.82;;
5961;SDS011;3007;50.770;0.250;2023-07-31T07:48:33;17.88;;;6.80;;
5961;SDS011;3007;50.770;0.250;2023-07-31T07:51:00;17.08;;;6.30;;
5961;SDS011;3007;50.770;0.250;2023-07-31T07:53:27;18.10;;;6.00;;
5961;SDS011;3007;50.770;0.250;2023-07-31T07:55:54;19.73;;;6.95;;
5961;SDS011;3007;50.770;0.250;2023-07-31T07:58:20;20.40;;;4.93;;
5961;SDS011;3007;50.770;0.250;2023-07-31T08:00:51;13.18;;;4.00;;
5961;SDS011;3007;50.770;0.250;2023-07-31T08:03:18;13.85;;;4.28;;
5961;SDS011;3007;50.770;0.250;2023-07-31T08:05:45;14.73;;;4.28;;
5961;SDS011;3007;50.770;0.250;2023-07-31T08:08:14;13.05;;;3.67;;
5961;SDS011;3007;50.770;0.250;2023-07-31T08:10:42;12.90;;;3.78;;
5961;SDS011;3007;50.770;0.250;2023-07-31T08:13:09;8.20;;;3.45;;
5961;SDS011;3007;50.770;0.250;2023-07-31T08:15:37;9.73;;;3.38;;
5961;SDS011;3007;50.770;0.250;2023-07-31T08:18:05;10.02;;;3.28;;
5961;SDS011;3007;50.770;0.250;2023-07-31T08:20:32;8.85;;;3.17;;
5961;SDS011;3007;50.770;0.250;2023-07-31T08:22:58;8.27;;;3.53;;
5961;SDS011;3007;50.770;0.250;2023-07-31T08:25:26;9.90;;;3.63;;
5961;SDS011;3007;50.770;0.250;2023-07-31T08:27:53;9.98;;;3.58;;
5961;SDS011;3007;50.770;0.250;2023-07-31T08:30:20;15.57;;;3.60;;
5961;SDS011;3007;50.770;0.250;2023-07-31T08:32:48;7.25;;;2.90;;
5961;SDS011;3007;50.770;0.250;2023-07-31T08:35:17;9.80;;;3.38;;
5961;SDS011;3007;50.770;0.250;2023-07-31T08:37:43;11.57;;;3.38;;
5961;SDS011;3007;50.770;0.250;2023-07-31T08:40:10;10.00;;;2.97;;
5961;SDS011;3007;50.770;0.250;2023-07-31T08:42:43;8.43;;;3.20;;
5961;SDS011;3007;50.770;0.250;2023-07-31T08:45:12;7.95;;;2.78;;
5961;SDS011;3007;50.770;0.250;2023-07-31T08:47:41;11.13;;;3.00;;
5961;SDS011;3007;50.770;0.250;2023-07-31T08:50:11;8.93;;;2.75;;
5961;SDS011;3007;50.770;0.250;2023-07-31T08:52:40;13.82;;;3.10;;
5961;SDS011;3007;50.770;0.250;2023-07-31T08:55:07;9.48;;;3.03;;
5961;SDS011;3007;50.770;0.250;2023-07-31T08:57:37;12.13;;;2.63;;
5961;SDS011;3007;50.770;0.250;2023-07-31T09:00:07;8.88;;;2.58;;
5961;SDS011;3007;50.770;0.250;2023-07-31T09:02:37;13.82;;;4.15;;
5961;SDS011;3007;50.770;0.250;2023-07-31T09:05:07;8.25;;;2.40;;
5961;SDS011;3007;50.770;0.250;2023-07-31T09:07:35;13.18;;;2.90;;
5961;SDS011;3007;50.770;0.250;2023-07-31T09:10:04;7.68;;;2.50;;
5961;SDS011;3007;50.770;0.250;2023-07-31T09:12:31;5.82;;;2.08;;
5961;SDS011;3007;50.770;0.250;2023-07-31T09:14:58;5.55;;;2.17;;
5961;SDS011;3007;50.770;0.250;2023-07-31T09:17:30;6.97;;;2.10;;
5961;SDS011;3007;50.770;0.250;2023-07-31T09:19:58;6.80;;;1.83;;
5961;SDS011;3007;50.770;0.250;2023-07-31T09:22:40;8.80;;;2.15;;
5961;SDS011;3007;50.770;0.250;2023-07-31T09:25:15;6.93;;;1.98;;
5961;SDS011;3007;50.770;0.250;2023-07-31T09:27:49;4.47;;;1.80;;
5961;SDS011;3007;50.770;0.250;2023-07-31T09:30:18;6.57;;;2.33;;
5961;SDS011;3007;50.770;0.250;2023-07-31T09:32:45;5.82;;;2.03;;
5961;SDS011;3007;50.770;0.250;2023-07-31T09:35:13;8.13;;;2.20;;
5961;SDS011;3007;50.770;0.250;2023-07-31T09:37:47;7.25;;;2.08;;
5961;SDS011;3007;50.770;0.250;2023-07-31T09:40:25;6.35;;;1.88;;
5961;SDS011;3007;50.770;0.250;2023-07-31T09:42:55;6.80;;;2.30;;
5961;SDS011;3007;50.770;0.250;2023-07-31T09:45:23;7.35;;;2.40;;
5961;SDS011;3007;50.770;0.250;2023-07-31T09:47:50;5.43;;;1.80;;
5961;SDS011;3007;50.770;0.250;2023-07-31T09:50:17;6.03;;;1.80;;
5961;SDS011;3007;50.770;0.250;2023-07-31T09:52:45;5.22;;;1.73;;
5961;SDS011;3007;50.770;0.250;2023-07-31T09:55:12;8.30;;;1.75;;
5961;SDS011;3007;50.770;0.250;2023-07-31T09:57:41;6.43;;;2.20;;
5961;SDS011;3007;50.770;0.250;2023-07-31T10:00:10;7.53;;;1.80;;
5961;SDS011;3007;50.770;0.250;2023-07-31T10:02:38;6.10;;;1.80;;
5961;SDS011;3007;50.770;0.250;2023-07-31T10:05:06;7.60;;;2.20;;
5961;SDS011;3007;50.770;0.250;2023-07-31T10:07:36;6.70;;;1.67;;
5961;SDS011;3007;50.770;0.250;2023-07-31T10:10:04;7.28;;;2.03;;
5961;SDS011;3007;50.770;0.250;2023-07-31T10:12:33;5.18;;;1.60;;
5961;SDS011;3007;50.770;0.250;2023-07-31T10:15:03;6.70;;;1.60;;
5961;SDS011;3007;50.770;0.250;2023-07-31T10:17:31;6.22;;;1.30;;
5961;SDS011;3007;50.770;0.250;2023-07-31T10:20:01;3.83;;;1.40;;
5961;SDS011;3007;50.770;0.250;2023-07-31T10:22:30;7.47;;;1.48;;
5961;SDS011;3007;50.770;0.250;2023-07-31T10:24:58;3.67;;;1.17;;
5961;SDS011;3007;50.770;0.250;2023-07-31T10:27:25;6.20;;;1.30;;
5961;SDS011;3007;50.770;0.250;2023-07-31T10:29:53;3.97;;;1.50;;
5961;SDS011;3007;50.770;0.250;2023-07-31T10:32:23;3.83;;;1.45;;
5961;SDS011;3007;50.770;0.250;2023-07-31T10:34:51;3.92;;;1.17;;
5961;SDS011;3007;50.770;0.250;2023-07-31T10:37:21;3.58;;;0.88;;
5961;SDS011;3007;50.770;0.250;2023-07-31T10:39:56;3.42;;;0.88;;
5961;SDS011;3007;50.770;0.250;2023-07-31T10:42:28;6.43;;;1.50;;
5961;SDS011;3007;50.770;0.250;2023-07-31T10:44:57;1.98;;;1.00;;
5961;SDS011;3007;50.770;0.250;2023-07-31T10:47:26;5.88;;;1.80;;
5961;SDS011;3007;50.770;0.250;2023-07-31T10:52:54;5.78;;;1.45;;
5961;SDS011;3007;50.770;0.250;2023-07-31T10:55:24;7.13;;;1.65;;
5961;SDS011;3007;50.770;0.250;2023-07-31T10:57:56;5.85;;;1.20;;
5961;SDS011;3007;50.770;0.250;2023-07-31T11:00:25;7.07;;;1.52;;
5961;SDS011;3007;50.770;0.250;2023-07-31T11:03:07;4.35;;;1.27;;
5961;SDS011;3007;50.770;0.250;2023-07-31T11:05:45;5.30;;;1.45;;
5961;SDS011;3007;50.770;0.250;2023-07-31T11:08:14;9.93;;;1.40;;
5961;SDS011;3007;50.770;0.250;2023-07-31T11:10:43;6.47;;;1.55;;
5961;SDS011;3007;50.770;0.250;2023-07-31T11:13:11;9.02;;;1.33;;
5961;SDS011;3007;50.770;0.250;2023-07-31T11:15:38;6.28;;;1.50;;
5961;SDS011;3007;50.770;0.250;2023-07-31T11:18:06;8.63;;;1.50;;
5961;SDS011;3007;50.770;0.250;2023-07-31T11:20:35;5.80;;;1.50;;
5961;SDS011;3007;50.770;0.250;2023-07-31T11:23:05;5.35;;;1.40;;
5961;SDS011;3007;50.770;0.250;2023-07-31T11:25:33;3.05;;;0.88;;
5961;SDS011;3007;50.770;0.250;2023-07-31T11:28:02;3.58;;;1.00;;
5961;SDS011;3007;50.770;0.250;2023-07-31T11:30:30;4.25;;;1.13;;
5961;SDS011;3007;50.770;0.250;2023-07-31T11:32:57;4.65;;;1.45;;
5961;SDS011;3007;50.770;0.250;2023-07-31T11:35:25;4.28;;;1.25;;
5961;SDS011;3007;50.770;0.250;2023-07-31T11:37:52;4.60;;;1.73;;
5961;SDS011;3007;50.770;0.250;2023-07-31T11:40:19;7.53;;;2.15;;
5961;SDS011;3007;50.770;0.250;2023-07-31T11:42:46;6.30;;;1.90;;
5961;SDS011;3007;50.770;0.250;2023-07-31T11:45:13;5.25;;;1.77;;
5961;SDS011;3007;50.770;0.250;2023-07-31T11:47:40;7.65;;;2.35;;
5961;SDS011;3007;50.770;0.250;2023-07-31T11:50:10;7.28;;;1.90;;
5961;SDS011;3007;50.770;0.250;2023-07-31T11:52:40;8.50;;;2.20;;
5961;SDS011;3007;50.770;0.250;2023-07-31T11:55:10;4.43;;;2.03;;
5961;SDS011;3007;50.770;0.250;2023-07-31T11:57:39;8.18;;;2.13;;
5961;SDS011;3007;50.770;0.250;2023-07-31T12:00:08;8.70;;;2.25;;
5961;SDS011;3007;50.770;0.250;2023-07-31T12:02:38;9.13;;;2.30;;
5961;SDS011;3007;50.770;0.250;2023-07-31T12:05:06;3.95;;;1.25;;
5961;SDS011;3007;50.770;0.250;2023-07-31T12:07:44;7.15;;;1.85;;
5961;SDS011;3007;50.770;0.250;2023-07-31T12:10:28;5.97;;;1.92;;
5961;SDS011;3007;50.770;0.250;2023-07-31T12:12:57;5.95;;;1.70;;
5961;SDS011;3007;50.770;0.250;2023-07-31T12:15:35;3.63;;;1.42;;
5961;SDS011;3007;50.770;0.250;2023-07-31T12:18:06;3.35;;;1.70;;
5961;SDS011;3007;50.770;0.250;2023-07-31T12:20:34;3.88;;;1.60;;
5961;SDS011;3007;50.770;0.250;2023-07-31T12:23:03;5.47;;;1.40;;
5961;SDS011;3007;50.770;0.250;2023-07-31T12:25:33;6.38;;;1.35;;
5961;SDS011;3007;50.770;0.250;2023-07-31T12:28:04;4.53;;;1.40;;
5961;SDS011;3007;50.770;0.250;2023-07-31T12:30:36;5.50;;;1.65;;
5961;SDS011;3007;50.770;0.250;2023-07-31T12:33:04;7.03;;;1.90;;
5961;SDS011;3007;50.770;0.250;2023-07-31T12:35:35;5.70;;;1.30;;
5961;SDS011;3007;50.770;0.250;2023-07-31T12:38:05;6.55;;;2.03;;
5961;SDS011;3007;50.770;0.250;2023-07-31T12:40:32;6.75;;;2.20;;
5961;SDS011;3007;50.770;0.250;2023-07-31T12:43:00;5.22;;;2.13;;
5961;SDS011;3007;50.770;0.250;2023-07-31T12:45:28;7.30;;;2.10;;
5961;SDS011;3007;50.770;0.250;2023-07-31T12:47:56;8.20;;;2.20;;
5961;SDS011;3007;50.770;0.250;2023-07-31T12:50:23;10.43;;;2.20;;
5961;SDS011;3007;50.770;0.250;2023-07-31T12:52:50;8.77;;;1.95;;
5961;SDS011;3007;50.770;0.250;2023-07-31T12:55:19;5.90;;;1.90;;
5961;SDS011;3007;50.770;0.250;2023-07-31T12:57:46;11.10;;;2.47;;
5961;SDS011;3007;50.770;0.250;2023-07-31T13:00:13;6.50;;;2.10;;
5961;SDS011;3007;50.770;0.250;2023-07-31T13:02:40;7.22;;;2.13;;
5961;SDS011;3007;50.770;0.250;2023-07-31T13:05:07;9.15;;;2.50;;
5961;SDS011;3007;50.770;0.250;2023-07-31T13:07:34;10.38;;;2.20;;
5961;SDS011;3007;50.770;0.250;2023-07-31T13:10:01;9.02;;;2.58;;
5961;SDS011;3007;50.770;0.250;2023-07-31T13:12:29;9.20;;;2.95;;
5961;SDS011;3007;50.770;0.250;2023-07-31T13:14:56;8.43;;;2.55;;
5961;SDS011;3007;50.770;0.250;2023-07-31T13:17:23;7.10;;;2.40;;
5961;SDS011;3007;50.770;0.250;2023-07-31T13:19:49;5.22;;;2.00;;
5961;SDS011;3007;50.770;0.250;2023-07-31T13:22:16;8.90;;;2.47;;
5961;SDS011;3007;50.770;0.250;2023-07-31T13:24:43;11.80;;;2.40;;
5961;SDS011;3007;50.770;0.250;2023-07-31T13:27:09;10.52;;;2.20;;
5961;SDS011;3007;50.770;0.250;2023-07-31T13:29:38;6.68;;;1.98;;
5961;SDS011;3007;50.770;0.250;2023-07-31T13:32:05;6.75;;;2.38;;
5961;SDS011;3007;50.770;0.250;2023-07-31T13:34:32;11.15;;;2.70;;
5961;SDS011;3007;50.770;0.250;2023-07-31T13:36:59;11.25;;;2.65;;
5961;SDS011;3007;50.770;0.250;2023-07-31T13:39:25;9.18;;;1.67;;
5961;SDS011;3007;50.770;0.250;2023-07-31T13:41:52;7.07;;;1.92;;
5961;SDS011;3007;50.770;0.250;2023-07-31T13:44:20;9.80;;;2.38;;
5961;SDS011;3007;50.770;0.250;2023-07-31T13:46:48;11.25;;;2.45;;
5961;SDS011;3007;50.770;0.250;2023-07-31T13:49:15;9.30;;;2.13;;
5961;SDS011;3007;50.770;0.250;2023-07-31T13:51:42;11.93;;;2.75;;
5961;SDS011;3007;50.770;0.250;2023-07-31T13:54:09;9.02;;;2.53;;
5961;SDS011;3007;50.770;0.250;2023-07-31T13:56:36;8.48;;;1.98;;
5961;SDS011;3007;50.770;0.250;2023-07-31T13:59:04;7.43;;;2.30;;
5961;SDS011;3007;50.770;0.250;2023-07-31T14:01:31;8.35;;;2.67;;
5961;SDS011;3007;50.770;0.250;2023-07-31T14:03:59;6.63;;;1.95;;
5961;SDS011;3007;50.770;0.250;2023-07-31T14:06:26;9.50;;;2.47;;
5961;SDS011;3007;50.770;0.250;2023-07-31T14:08:53;11.20;;;2.97;;
5961;SDS011;3007;50.770;0.250;2023-07-31T14:11:20;9.38;;;2.30;;
5961;SDS011;3007;50.770;0.250;2023-07-31T14:13:47;10.73;;;2.50;;
5961;SDS011;3007;50.770;0.250;2023-07-31T14:16:16;6.93;;;1.77;;
5961;SDS011;3007;50.770;0.250;2023-07-31T14:18:43;4.80;;;2.03;;
5961;SDS011;3007;50.770;0.250;2023-07-31T14:21:11;6.93;;;1.98;;
5961;SDS011;3007;50.770;0.250;2023-07-31T14:23:39;6.55;;;2.15;;
5961;SDS011;3007;50.770;0.250;2023-07-31T14:26:05;6.18;;;2.17;;
5961;SDS011;3007;50.770;0.250;2023-07-31T14:28:33;5.25;;;1.75;;
5961;SDS011;3007;50.770;0.250;2023-07-31T14:31:00;10.90;;;1.90;;
5961;SDS011;3007;50.770;0.250;2023-07-31T14:33:27;8.18;;;2.17;;
5961;SDS011;3007;50.770;0.250;2023-07-31T14:35:53;7.78;;;2.47;;
5961;SDS011;3007;50.770;0.250;2023-07-31T14:38:22;10.45;;;2.40;;
5961;SDS011;3007;50.770;0.250;2023-07-31T14:40:49;9.23;;;2.45;;
5961;SDS011;3007;50.770;0.250;2023-07-31T14:43:16;10.07;;;2.47;;
5961;SDS011;3007;50.770;0.250;2023-07-31T14:45:42;10.02;;;1.95;;
5961;SDS011;3007;50.770;0.250;2023-07-31T14:48:11;9.02;;;2.78;;
5961;SDS011;3007;50.770;0.250;2023-07-31T14:50:38;9.50;;;3.03;;
5961;SDS011;3007;50.770;0.250;2023-07-31T14:53:05;8.90;;;2.05;;
5961;SDS011;3007;50.770;0.250;2023-07-31T14:55:33;10.10;;;2.45;;
5961;SDS011;3007;50.770;0.250;2023-07-31T14:58:00;9.25;;;3.08;;
5961;SDS011;3007;50.770;0.250;2023-07-31T15:00:27;8.93;;;2.65;;
5961;SDS011;3007;50.770;0.250;2023-07-31T15:02:53;8.30;;;2.13;;
5961;SDS011;3007;50.770;0.250;2023-07-31T15:05:20;9.05;;;2.17;;
5961;SDS011;3007;50.770;0.250;2023-07-31T15:07:47;12.20;;;2.72;;
5961;SDS011;3007;50.770;0.250;2023-07-31T15:10:14;10.20;;;2.55;;
5961;SDS011;3007;50.770;0.250;2023-07-31T15:12:43;9.50;;;2.38;;
5961;SDS011;3007;50.770;0.250;2023-07-31T15:15:10;11.35;;;2.72;;